Time;durP1;ratioP1;P1;durP2;ratioP2;P2;SDS_P1;SDS_P2;PMS_P1;PMS_P2;Temp;Humidity;BMP_temperature;BMP_pressure;BME280_temperature;BME280_humidity;BME280_pressure;Samples;Min_cycle;Max_cycle;Signal;HPM_P1;HPM_P2
2021/12/23 00:00:13;;;;;;;28.53;10.53;;;0.60;51.00;;;;;;5093736;27;20559;-89
2021/12/23 00:02:41;;;;;;;24.20;11.30;;;0.50;51.50;;;;;;5070410;28;20481;-88
2021/12/23 00:05:10;;;;;;;25.53;13.43;;;0.40;51.80;;;;;;5078692;28;20817;-87
2021/12/23 00:07:37;;;;;;;31.43;11.00;;;0.40;51.90;;;;;;5077545;28;20458;-87
2021/12/23 00:10:07;;;;;;;19.80;10.67;;;0.60;51.50;;;;;;5043844;28;20450;-89
2021/12/23 00:12:36;;;;;;;24.73;11.33;;;0.70;50.80;;;;;;5067353;28;20484;-88
2021/12/23 00:15:04;;;;;;;18.97;10.63;;;0.70;50.30;;;;;;5062893;28;20452;-87
2021/12/23 00:17:55;;;;;;;20.23;10.90;;;0.80;50.10;;;;;;5058288;28;20474;-87
2021/12/23 00:23:25;;;;;;;21.87;11.30;;;0.90;49.30;;;;;;5078840;28;20996;-86
2021/12/23 00:25:54;;;;;;;22.80;10.10;;;0.90;49.30;;;;;;5090418;28;20475;-90
2021/12/23 00:28:22;;;;;;;30.07;14.60;;;0.90;49.40;;;;;;5058474;27;20447;-86
2021/12/23 00:30:49;;;;;;;22.03;11.90;;;0.90;49.80;;;;;;5075468;28;20460;-88
2021/12/23 00:33:15;;;;;;;20.03;12.23;;;0.90;50.50;;;;;;5093532;28;20844;-87
2021/12/23 00:35:44;;;;;;;24.40;11.03;;;0.90;50.50;;;;;;5093292;27;20489;-87
2021/12/23 00:38:18;;;;;;;30.53;11.43;;;0.80;51.10;;;;;;5076650;28;20485;-88
2021/12/23 00:40:45;;;;;;;39.93;13.70;;;0.60;51.70;;;;;;5063070;28;20448;-88
2021/12/23 00:43:12;;;;;;;25.57;13.40;;;0.50;52.00;;;;;;5059356;28;20470;-88
2021/12/23 00:45:39;;;;;;;21.63;13.87;;;0.30;53.20;;;;;;5057298;28;20556;-89
2021/12/23 00:48:06;;;;;;;25.90;9.40;;;-0.40;55.10;;;;;;5090620;28;20461;-87
2021/12/23 00:50:33;;;;;;;15.00;9.83;;;-0.30;55.70;;;;;;5075414;28;20482;-88
2021/12/23 00:53:06;;;;;;;26.60;13.97;;;-0.30;57.10;;;;;;5076695;28;20458;-87
2021/12/23 00:55:33;;;;;;;24.70;13.87;;;0.10;55.60;;;;;;5076609;28;20532;-87
2021/12/23 00:58:00;;;;;;;23.03;12.07;;;0.30;54.40;;;;;;5059766;28;20554;-87
2021/12/23 01:00:28;;;;;;;21.73;12.97;;;0.50;53.30;;;;;;5061294;28;20470;-87
2021/12/23 01:02:55;;;;;;;26.40;12.80;;;0.60;52.60;;;;;;5075795;27;20844;-87
2021/12/23 01:05:23;;;;;;;24.97;13.83;;;0.80;52.20;;;;;;5065415;28;20462;-88
2021/12/23 01:07:50;;;;;;;25.47;13.80;;;0.90;51.90;;;;;;5077617;28;20466;-87
2021/12/23 01:10:20;;;;;;;23.30;14.53;;;0.80;51.50;;;;;;5075003;28;20646;-88
2021/12/23 01:12:52;;;;;;;23.43;13.80;;;0.80;51.60;;;;;;5090204;27;20474;-87
2021/12/23 01:15:39;;;;;;;25.23;12.27;;;0.60;52.40;;;;;;5093913;28;20887;-87
2021/12/23 01:18:12;;;;;;;18.40;11.07;;;0.50;53.40;;;;;;5094592;27;20474;-87
2021/12/23 01:20:50;;;;;;;22.47;12.97;;;0.70;53.40;;;;;;5095075;28;20457;-87
2021/12/23 01:23:17;;;;;;;30.63;14.70;;;0.90;52.60;;;;;;5076495;28;21089;-88
2021/12/23 01:25:46;;;;;;;37.00;14.53;;;0.80;52.50;;;;;;5077651;28;20844;-87
2021/12/23 01:28:13;;;;;;;22.57;13.53;;;0.90;52.20;;;;;;5077380;28;20450;-87
2021/12/23 01:30:40;;;;;;;24.63;14.40;;;1.00;52.10;;;;;;5069347;28;20449;-89
2021/12/23 01:33:09;;;;;;;29.90;15.17;;;1.10;52.10;;;;;;5074492;27;20469;-87
2021/12/23 01:35:37;;;;;;;49.47;14.77;;;1.20;51.70;;;;;;5075986;28;20458;-85
2021/12/23 01:38:04;;;;;;;27.13;11.33;;;1.20;51.30;;;;;;5083893;28;20671;-89
2021/12/23 01:40:32;;;;;;;28.27;14.40;;;1.20;51.60;;;;;;5073742;28;20781;-87
2021/12/23 01:43:03;;;;;;;23.03;12.07;;;1.10;51.90;;;;;;5095715;28;20474;-87
2021/12/23 01:45:32;;;;;;;26.20;15.60;;;1.20;51.60;;;;;;5092695;28;20536;-85
2021/12/23 01:48:00;;;;;;;23.17;12.60;;;1.20;51.70;;;;;;5077066;28;20450;-87
2021/12/23 01:50:28;;;;;;;31.67;13.90;;;1.10;51.90;;;;;;5068576;28;21007;-88
2021/12/23 01:52:55;;;;;;;23.67;14.00;;;1.20;52.00;;;;;;5075993;28;20833;-88
2021/12/23 01:55:22;;;;;;;27.00;12.20;;;1.20;52.10;;;;;;5092101;28;20454;-87
2021/12/23 01:57:50;;;;;;;25.90;13.07;;;1.30;52.10;;;;;;5075926;28;20466;-89
2021/12/23 02:00:22;;;;;;;32.50;14.47;;;1.40;51.70;;;;;;5058866;28;20454;-87
2021/12/23 02:02:50;;;;;;;19.13;11.70;;;1.40;51.30;;;;;;5051501;28;20537;-87
2021/12/23 02:05:17;;;;;;;29.07;13.70;;;1.40;51.10;;;;;;5041798;28;20489;-86
2021/12/23 02:07:45;;;;;;;30.23;14.83;;;1.30;50.60;;;;;;5079303;28;20458;-88
2021/12/23 02:10:12;;;;;;;21.10;13.30;;;1.30;50.50;;;;;;5098063;28;20885;-85
2021/12/23 02:12:42;;;;;;;23.07;11.50;;;1.20;50.40;;;;;;5093184;28;20479;-87
2021/12/23 02:15:10;;;;;;;23.70;12.70;;;1.30;50.30;;;;;;5094185;28;20455;-87
2021/12/23 02:17:39;;;;;;;26.80;12.03;;;1.20;50.20;;;;;;5073989;28;20500;-87
2021/12/23 02:20:10;;;;;;;19.53;11.73;;;1.30;51.10;;;;;;5062137;28;20470;-87
2021/12/23 02:22:37;;;;;;;28.23;12.23;;;1.30;50.50;;;;;;5075914;28;20482;-88
2021/12/23 02:25:06;;;;;;;19.30;11.93;;;1.30;50.40;;;;;;5076637;28;20481;-87
2021/12/23 02:27:34;;;;;;;36.53;14.00;;;1.30;50.50;;;;;;5076143;28;20947;-87
2021/12/23 02:30:01;;;;;;;25.47;13.93;;;0.90;51.60;;;;;;5065955;28;20925;-88
2021/12/23 02:32:28;;;;;;;24.80;11.23;;;1.00;52.00;;;;;;5045606;28;20555;-87
2021/12/23 02:34:55;;;;;;;30.07;14.47;;;1.10;51.60;;;;;;5095986;27;20579;-87
2021/12/23 02:37:23;;;;;;;21.60;12.33;;;1.10;51.00;;;;;;5088278;28;20550;-87
2021/12/23 02:39:50;;;;;;;26.93;12.03;;;1.20;50.70;;;;;;5072533;28;20465;-86
2021/12/23 02:42:17;;;;;;;33.57;10.90;;;1.20;50.50;;;;;;5089497;28;21012;-88
2021/12/23 02:44:44;;;;;;;28.70;13.90;;;1.20;50.60;;;;;;5091484;28;20451;-88
2021/12/23 02:47:11;;;;;;;20.13;11.33;;;1.20;50.80;;;;;;5059097;28;20492;-87
2021/12/23 02:49:38;;;;;;;24.90;14.27;;;1.10;50.60;;;;;;5058985;28;20897;-89
2021/12/23 02:52:05;;;;;;;21.20;12.67;;;1.10;50.90;;;;;;5076014;28;20465;-88
2021/12/23 02:54:34;;;;;;;26.13;13.27;;;1.10;50.90;;;;;;5057385;28;21053;-87
2021/12/23 02:57:01;;;;;;;21.87;12.50;;;0.80;51.40;;;;;;5093376;28;20856;-87
2021/12/23 02:59:28;;;;;;;27.23;14.10;;;0.70;51.90;;;;;;5090415;28;20454;-87
2021/12/23 03:01:55;;;;;;;25.77;12.90;;;0.80;52.40;;;;;;5081702;28;20477;-87
2021/12/23 03:04:23;;;;;;;31.83;13.83;;;0.90;52.40;;;;;;5055828;28;20469;-88
2021/12/23 03:06:50;;;;;;;25.80;13.03;;;1.00;51.80;;;;;;5088188;28;20511;-87
2021/12/23 03:09:17;;;;;;;22.97;11.67;;;1.00;51.30;;;;;;5040537;28;20457;-87
2021/12/23 03:11:45;;;;;;;22.47;12.70;;;1.10;50.90;;;;;;5074656;28;20523;-87
2021/12/23 03:14:14;;;;;;;23.77;12.03;;;1.10;50.80;;;;;;5075638;28;20480;-87
2021/12/23 03:16:41;;;;;;;19.63;12.47;;;1.00;50.60;;;;;;5077633;28;20462;-87
2021/12/23 03:19:08;;;;;;;20.83;13.60;;;1.00;50.40;;;;;;5059876;28;20466;-88
2021/12/23 03:21:35;;;;;;;24.37;12.63;;;0.80;50.20;;;;;;5073244;28;20489;-87
2021/12/23 03:24:03;;;;;;;24.03;12.20;;;0.80;50.50;;;;;;5062382;28;20508;-88
2021/12/23 03:26:30;;;;;;;22.90;11.83;;;0.80;50.20;;;;;;5094125;28;20475;-85
2021/12/23 03:28:58;;;;;;;17.53;11.00;;;0.50;50.70;;;;;;5056201;28;20454;-87
2021/12/23 03:31:25;;;;;;;21.67;13.20;;;0.40;51.50;;;;;;5070918;28;20853;-87
2021/12/23 03:33:52;;;;;;;24.10;12.17;;;0.20;50.70;;;;;;5092205;28;20470;-87
2021/12/23 03:36:19;;;;;;;28.60;13.00;;;0.10;51.40;;;;;;5078443;28;20962;-88
2021/12/23 03:38:46;;;;;;;21.23;12.93;;;0.40;51.50;;;;;;5074165;28;20466;-87
2021/12/23 03:41:14;;;;;;;18.50;10.27;;;0.50;51.00;;;;;;5075735;28;20809;-87
2021/12/23 03:43:42;;;;;;;21.90;12.13;;;0.50;50.50;;;;;;5090925;28;20488;-87
2021/12/23 03:46:11;;;;;;;21.33;10.50;;;0.40;50.50;;;;;;5078159;28;20471;-88
2021/12/23 03:48:38;;;;;;;21.43;11.13;;;0.20;51.60;;;;;;5079033;28;20501;-87
2021/12/23 03:51:05;;;;;;;28.13;12.10;;;-0.20;52.80;;;;;;5094873;28;20502;-87
2021/12/23 03:53:32;;;;;;;22.63;11.47;;;-0.20;53.30;;;;;;5053118;28;20485;-88
2021/12/23 03:55:59;;;;;;;19.33;10.87;;;0.00;52.40;;;;;;5048332;28;20438;-87
2021/12/23 03:58:26;;;;;;;23.30;10.97;;;0.10;51.70;;;;;;5051510;27;20511;-87
2021/12/23 04:00:54;;;;;;;15.73;9.50;;;0.10;51.30;;;;;;5076830;28;20446;-87
2021/12/23 04:03:22;;;;;;;14.90;9.37;;;0.20;51.20;;;;;;5054148;28;20473;-86
2021/12/23 04:05:49;;;;;;;14.73;9.40;;;0.30;50.90;;;;;;5076121;28;20462;-87
2021/12/23 04:08:16;;;;;;;17.23;9.80;;;0.30;50.60;;;;;;5095754;28;21004;-87
2021/12/23 04:10:43;;;;;;;20.77;10.70;;;0.20;50.70;;;;;;5092939;27;20459;-87
2021/12/23 04:13:10;;;;;;;22.97;11.57;;;0.30;51.50;;;;;;5079975;28;21031;-87
2021/12/23 04:15:37;;;;;;;18.13;11.80;;;0.30;51.40;;;;;;5094999;28;20457;-87
2021/12/23 04:18:04;;;;;;;19.03;9.83;;;0.30;50.90;;;;;;5077737;28;20466;-88
2021/12/23 04:20:45;;;;;;;16.80;9.97;;;0.20;50.90;;;;;;5048641;28;20470;-87
2021/12/23 04:23:12;;;;;;;20.93;9.70;;;0.20;51.80;;;;;;5073307;28;20468;-87
2021/12/23 04:25:39;;;;;;;21.10;11.80;;;0.20;52.30;;;;;;5076505;28;20465;-87
2021/12/23 04:28:06;;;;;;;21.37;11.73;;;0.40;52.20;;;;;;5076331;28;20455;-88
2021/12/23 04:30:33;;;;;;;48.30;16.47;;;0.60;51.60;;;;;;5069220;28;20546;-89
2021/12/23 04:33:01;;;;;;;29.63;14.90;;;0.70;51.30;;;;;;5091793;28;20465;-87
2021/12/23 04:35:28;;;;;;;21.30;14.10;;;0.80;51.60;;;;;;5062462;28;20966;-85
2021/12/23 04:37:56;;;;;;;36.83;14.80;;;0.90;51.50;;;;;;5080949;28;20436;-88
2021/12/23 04:40:23;;;;;;;25.87;14.33;;;0.90;51.00;;;;;;5079198;28;20458;-88
2021/12/23 04:42:50;;;;;;;26.77;12.50;;;0.90;50.60;;;;;;5077594;28;20458;-88
2021/12/23 04:45:17;;;;;;;30.80;14.70;;;1.00;50.50;;;;;;5096105;28;20509;-87
2021/12/23 04:47:45;;;;;;;26.43;15.97;;;1.00;50.60;;;;;;5064111;28;20453;-87
2021/12/23 04:50:14;;;;;;;24.47;13.37;;;1.00;50.50;;;;;;5068097;28;20447;-87
2021/12/23 04:52:42;;;;;;;25.13;13.00;;;1.00;50.40;;;;;;5068265;27;20988;-87
2021/12/23 04:55:12;;;;;;;21.53;11.80;;;1.00;50.40;;;;;;5095926;27;20454;-87
2021/12/23 04:57:39;;;;;;;25.30;11.93;;;1.00;50.60;;;;;;5093895;28;20544;-88
2021/12/23 05:00:10;;;;;;;26.27;12.20;;;1.00;50.70;;;;;;5045373;28;20951;-87
2021/12/23 05:02:37;;;;;;;21.67;12.13;;;1.10;50.60;;;;;;5076485;28;21099;-87
2021/12/23 05:05:05;;;;;;;18.67;11.93;;;1.10;50.40;;;;;;5073237;28;20455;-87
2021/12/23 05:07:32;;;;;;;22.10;14.70;;;1.20;50.40;;;;;;5062282;28;20463;-87
2021/12/23 05:09:59;;;;;;;28.00;15.30;;;1.10;50.70;;;;;;5094642;28;20461;-87
2021/12/23 05:12:28;;;;;;;22.97;13.50;;;1.10;50.80;;;;;;5092637;28;20478;-87
2021/12/23 05:14:55;;;;;;;23.17;12.57;;;1.10;51.20;;;;;;5095352;28;20463;-88
2021/12/23 05:17:22;;;;;;;19.30;10.73;;;1.10;51.10;;;;;;5094132;28;20459;-89
2021/12/23 05:19:49;;;;;;;25.37;13.23;;;1.10;50.80;;;;;;5076250;28;20458;-87
2021/12/23 05:22:16;;;;;;;29.30;17.73;;;1.20;50.80;;;;;;5094408;27;20474;-87
2021/12/23 05:24:43;;;;;;;22.63;12.40;;;1.10;51.10;;;;;;5051510;28;20441;-87
2021/12/23 05:27:10;;;;;;;30.93;16.70;;;1.00;51.70;;;;;;5076700;28;20466;-88
2021/12/23 05:29:38;;;;;;;26.20;13.60;;;1.00;52.20;;;;;;5077016;28;20548;-87
2021/12/23 05:32:07;;;;;;;24.63;13.97;;;1.00;52.30;;;;;;5091099;27;20489;-87
2021/12/23 05:34:33;;;;;;;24.77;13.07;;;1.20;52.20;;;;;;5076662;28;20462;-87
2021/12/23 05:37:00;;;;;;;22.97;14.87;;;1.30;52.00;;;;;;5075693;28;20444;-87
2021/12/23 05:39:27;;;;;;;30.27;13.90;;;1.30;51.80;;;;;;5086740;28;20458;-87
2021/12/23 05:41:54;;;;;;;28.03;14.40;;;1.40;51.70;;;;;;5097548;28;20461;-87
2021/12/23 05:44:21;;;;;;;22.33;11.80;;;1.40;51.30;;;;;;5096904;27;20799;-87
2021/12/23 05:46:50;;;;;;;24.63;14.87;;;1.40;51.20;;;;;;5085848;28;20493;-87
2021/12/23 05:49:16;;;;;;;22.63;11.17;;;1.40;51.50;;;;;;5078805;28;20458;-87
2021/12/23 05:51:44;;;;;;;19.67;11.23;;;1.40;51.40;;;;;;5074494;28;20474;-88
2021/12/23 05:54:11;;;;;;;23.83;13.20;;;1.40;51.30;;;;;;5097196;28;20491;-88
2021/12/23 05:56:38;;;;;;;25.37;13.77;;;1.20;51.50;;;;;;5074743;28;20455;-88
2021/12/23 05:59:05;;;;;;;18.47;12.30;;;1.20;52.00;;;;;;5077499;28;20549;-88
2021/12/23 06:01:33;;;;;;;30.20;15.73;;;1.10;52.60;;;;;;5094214;28;20447;-87
2021/12/23 06:04:01;;;;;;;29.77;15.13;;;1.10;52.90;;;;;;5094279;28;20474;-89
2021/12/23 06:06:28;;;;;;;22.37;13.70;;;1.20;52.70;;;;;;5092661;27;20505;-84
2021/12/23 06:08:55;;;;;;;30.93;13.13;;;1.30;52.20;;;;;;5051101;28;20493;-87
2021/12/23 06:11:22;;;;;;;24.17;14.27;;;1.40;52.00;;;;;;5094339;28;20454;-87
2021/12/23 06:13:49;;;;;;;22.20;13.00;;;1.40;51.50;;;;;;5093664;28;20466;-87
2021/12/23 06:16:16;;;;;;;27.93;13.23;;;1.40;51.00;;;;;;5075202;28;20464;-87
2021/12/23 06:18:43;;;;;;;22.53;12.53;;;1.40;51.00;;;;;;5095637;28;20453;-88
2021/12/23 06:21:11;;;;;;;16.87;11.03;;;1.40;50.90;;;;;;5072735;28;20454;-87
2021/12/23 06:23:38;;;;;;;21.87;11.10;;;1.40;50.80;;;;;;5060779;28;21140;-87
2021/12/23 06:26:05;;;;;;;19.27;10.53;;;1.30;50.70;;;;;;5072718;28;20557;-88
2021/12/23 06:28:32;;;;;;;27.00;12.80;;;1.30;50.90;;;;;;5067617;28;20545;-87
2021/12/23 06:30:59;;;;;;;21.00;12.87;;;1.30;51.10;;;;;;5091857;28;20470;-88
2021/12/23 06:33:26;;;;;;;29.10;13.60;;;1.30;51.20;;;;;;5074758;28;20482;-87
2021/12/23 06:35:53;;;;;;;19.77;11.90;;;1.30;51.20;;;;;;5075285;28;20459;-88
2021/12/23 06:38:21;;;;;;;25.90;12.20;;;1.30;51.30;;;;;;5061391;28;20505;-86
2021/12/23 06:40:48;;;;;;;25.23;12.03;;;1.30;51.30;;;;;;5093804;28;20910;-87
2021/12/23 06:43:15;;;;;;;23.57;11.33;;;1.20;51.40;;;;;;5076380;28;20463;-88
2021/12/23 06:45:42;;;;;;;24.27;14.73;;;1.20;51.70;;;;;;5080704;28;21004;-86
2021/12/23 06:48:09;;;;;;;25.93;13.70;;;1.20;52.10;;;;;;5063143;28;20475;-88
2021/12/23 06:50:36;;;;;;;26.80;14.30;;;1.20;52.20;;;;;;5067544;28;20447;-88
2021/12/23 06:53:04;;;;;;;26.80;16.60;;;1.30;52.10;;;;;;5078178;28;20485;-87
2021/12/23 06:55:33;;;;;;;25.53;12.03;;;1.20;52.40;;;;;;5056875;28;20479;-87
2021/12/23 06:58:00;;;;;;;36.80;13.60;;;1.20;52.00;;;;;;5095763;28;20452;-87
2021/12/23 07:00:29;;;;;;;28.07;15.97;;;1.20;52.00;;;;;;5050551;28;20804;-87
2021/12/23 07:02:57;;;;;;;22.93;12.83;;;1.20;52.10;;;;;;5094399;28;20470;-89
2021/12/23 07:05:24;;;;;;;27.70;15.40;;;1.20;51.70;;;;;;5075186;28;20459;-88
2021/12/23 07:07:55;;;;;;;34.07;15.37;;;1.10;52.00;;;;;;5077554;28;20504;-88
2021/12/23 07:10:24;;;;;;;36.17;17.17;;;1.10;52.30;;;;;;5078607;28;20966;-88
2021/12/23 07:12:53;;;;;;;20.77;11.97;;;1.20;52.00;;;;;;5077061;28;20478;-87
2021/12/23 07:15:21;;;;;;;26.47;15.20;;;1.20;51.40;;;;;;5092453;28;20455;-86
2021/12/23 07:17:48;;;;;;;31.30;16.67;;;1.20;51.00;;;;;;5061862;28;20450;-88
2021/12/23 07:20:14;;;;;;;36.23;18.10;;;1.20;51.00;;;;;;5062674;28;20484;-86
2021/12/23 07:22:42;;;;;;;33.87;13.40;;;1.20;51.00;;;;;;5075324;28;20483;-88
2021/12/23 07:25:10;;;;;;;19.90;11.57;;;1.20;50.80;;;;;;5083812;28;20458;-90
2021/12/23 07:27:37;;;;;;;17.23;10.60;;;1.20;50.60;;;;;;5084009;28;20495;-90
2021/12/23 07:30:07;;;;;;;26.40;13.27;;;1.20;50.60;;;;;;5067936;28;20450;-88
2021/12/23 07:32:34;;;;;;;18.53;11.20;;;1.30;50.80;;;;;;5068948;28;20961;-88
2021/12/23 07:35:01;;;;;;;22.13;15.27;;;1.30;50.70;;;;;;5070284;27;20818;-88
2021/12/23 07:37:28;;;;;;;22.07;11.40;;;1.30;51.20;;;;;;5077780;28;20449;-86
2021/12/23 07:39:55;;;;;;;19.67;12.17;;;1.20;52.00;;;;;;5090742;28;21050;-88
2021/12/23 07:42:25;;;;;;;18.03;10.47;;;1.30;51.90;;;;;;5101765;28;21049;-89
2021/12/23 07:44:52;;;;;;;19.73;11.33;;;1.40;51.60;;;;;;5086779;28;20457;-89
2021/12/23 07:47:20;;;;;;;21.67;10.83;;;1.40;51.60;;;;;;5061394;28;20474;-85
2021/12/23 07:49:47;;;;;;;17.87;12.00;;;1.50;51.80;;;;;;5050245;28;20470;-89
2021/12/23 07:52:15;;;;;;;22.97;10.40;;;1.50;51.80;;;;;;5071384;28;20466;-88
2021/12/23 07:54:42;;;;;;;22.53;11.37;;;1.50;51.80;;;;;;5083236;28;20529;-87
2021/12/23 07:57:09;;;;;;;31.80;15.27;;;1.40;52.20;;;;;;5078640;28;20977;-88
2021/12/23 07:59:36;;;;;;;24.10;11.50;;;1.30;52.80;;;;;;5082084;28;20790;-89
2021/12/23 08:02:04;;;;;;;23.90;10.60;;;1.40;52.70;;;;;;5082559;28;20981;-88
2021/12/23 08:04:33;;;;;;;19.10;11.13;;;1.40;52.20;;;;;;5060360;28;20458;-89
2021/12/23 08:07:02;;;;;;;26.93;11.57;;;1.40;52.10;;;;;;5101194;28;20893;-87
2021/12/23 08:09:30;;;;;;;30.17;12.77;;;1.40;52.10;;;;;;5074033;28;20465;-86
2021/12/23 08:11:59;;;;;;;21.70;11.77;;;1.10;52.50;;;;;;5083009;28;21215;-89
2021/12/23 08:14:26;;;;;;;137.33;60.27;;;1.10;52.80;;;;;;5101988;27;20451;-89
2021/12/23 08:16:53;;;;;;;68.70;32.73;;;1.00;53.50;;;;;;5060487;28;20427;-88
2021/12/23 08:19:20;;;;;;;34.27;18.57;;;1.00;53.50;;;;;;5079165;28;20454;-87
2021/12/23 08:21:48;;;;;;;37.97;21.07;;;1.10;53.10;;;;;;5085409;28;20468;-88
2021/12/23 08:24:15;;;;;;;36.67;20.73;;;1.20;53.20;;;;;;5079782;28;20448;-87
2021/12/23 08:26:50;;;;;;;34.50;19.70;;;1.30;53.10;;;;;;5081913;28;20487;-88
2021/12/23 08:29:19;;;;;;;41.53;21.50;;;1.40;52.50;;;;;;5080197;27;20542;-88
2021/12/23 08:31:46;;;;;;;34.93;17.70;;;1.40;52.90;;;;;;5067851;28;20505;-87
2021/12/23 08:34:14;;;;;;;43.07;23.97;;;1.40;53.10;;;;;;5081699;28;20455;-88
2021/12/23 08:36:40;;;;;;;24.63;15.13;;;1.30;52.70;;;;;;5092977;27;20555;-88
2021/12/23 08:39:09;;;;;;;31.83;15.50;;;1.30;53.30;;;;;;5078857;28;20472;-88
2021/12/23 08:41:36;;;;;;;28.23;16.00;;;1.20;53.60;;;;;;5097910;28;20829;-88
2021/12/23 08:44:03;;;;;;;23.37;13.00;;;1.40;53.70;;;;;;5063050;28;20477;-90
2021/12/23 08:46:30;;;;;;;27.07;15.17;;;1.60;53.50;;;;;;5087581;28;20511;-89
2021/12/23 08:48:57;;;;;;;29.20;15.10;;;1.80;53.10;;;;;;5102027;27;20457;-88
2021/12/23 08:51:24;;;;;;;35.67;15.80;;;1.90;53.40;;;;;;5067867;28;21145;-89
2021/12/23 08:53:51;;;;;;;32.57;16.97;;;2.00;52.70;;;;;;5080556;28;20467;-89
2021/12/23 08:56:20;;;;;;;20.73;13.13;;;2.00;52.40;;;;;;5066078;28;20451;-88
2021/12/23 08:58:47;;;;;;;25.33;15.30;;;2.00;52.50;;;;;;5072223;28;20435;-88
2021/12/23 09:01:14;;;;;;;28.43;14.50;;;2.10;52.70;;;;;;5078516;28;20828;-88
2021/12/23 09:03:41;;;;;;;32.07;14.37;;;1.90;52.60;;;;;;5062037;28;20474;-87
2021/12/23 09:06:07;;;;;;;31.07;13.80;;;1.90;52.90;;;;;;5082726;28;21535;-88
2021/12/23 09:08:35;;;;;;;30.57;15.83;;;1.90;52.90;;;;;;5084838;28;20556;-89
2021/12/23 09:11:02;;;;;;;25.37;14.43;;;1.80;53.30;;;;;;5066316;28;20459;-88
2021/12/23 09:13:31;;;;;;;41.33;17.40;;;1.90;53.50;;;;;;5097968;28;20981;-88
2021/12/23 09:15:59;;;;;;;25.20;13.57;;;2.00;53.10;;;;;;5092667;28;21278;-89
2021/12/23 09:18:26;;;;;;;46.40;17.93;;;2.10;52.60;;;;;;5039278;28;20716;-89
2021/12/23 09:20:55;;;;;;;40.30;17.87;;;2.00;52.70;;;;;;5081801;28;20439;-89
2021/12/23 09:23:23;;;;;;;24.40;11.90;;;2.00;52.80;;;;;;5085513;27;20471;-86
2021/12/23 09:25:50;;;;;;;25.53;14.77;;;2.00;53.10;;;;;;5076841;28;20442;-85
2021/12/23 09:28:33;;;;;;;24.07;13.90;;;2.10;53.10;;;;;;5064825;28;20506;-89
2021/12/23 09:33:47;;;;;;;20.27;12.90;;;2.30;52.60;;;;;;5061073;28;20468;-88
2021/12/23 09:36:15;;;;;;;28.13;14.77;;;2.30;52.80;;;;;;5067820;28;20445;-88
2021/12/23 09:38:44;;;;;;;28.00;13.90;;;2.20;53.80;;;;;;5076577;28;20547;-88
2021/12/23 09:41:13;;;;;;;22.37;13.07;;;2.20;53.10;;;;;;5082643;28;20458;-88
2021/12/23 09:43:41;;;;;;;22.40;13.23;;;2.20;53.30;;;;;;5067022;28;20483;-88
2021/12/23 09:46:13;;;;;;;23.23;12.50;;;2.00;53.40;;;;;;5080660;28;20451;-88
2021/12/23 09:48:42;;;;;;;28.37;16.47;;;1.80;54.00;;;;;;5079674;28;21191;-89
2021/12/23 09:51:10;;;;;;;21.73;15.50;;;2.00;54.00;;;;;;5061165;28;20440;-88
2021/12/23 09:53:41;;;;;;;30.60;14.10;;;2.10;53.80;;;;;;5096458;28;20535;-88
2021/12/23 09:56:08;;;;;;;31.93;16.00;;;2.30;53.60;;;;;;5095542;27;20440;-88
2021/12/23 09:58:36;;;;;;;27.03;15.00;;;2.40;53.20;;;;;;5077172;28;20467;-88
2021/12/23 10:01:04;;;;;;;26.40;15.73;;;2.30;53.20;;;;;;5096439;27;20459;-89
2021/12/23 10:03:33;;;;;;;32.27;14.23;;;2.30;53.30;;;;;;5061733;28;20473;-86
2021/12/23 10:06:01;;;;;;;28.90;17.27;;;2.40;53.40;;;;;;5092314;28;20461;-88
2021/12/23 10:08:29;;;;;;;26.33;15.67;;;2.50;53.30;;;;;;5078320;28;20473;-87
2021/12/23 10:11:00;;;;;;;29.57;14.70;;;2.50;53.00;;;;;;5050127;28;20545;-88
2021/12/23 10:30:38;;;;;;;34.40;14.40;;;2.70;53.10;;;;;;5091007;28;21053;-88
2021/12/23 10:39:05;;;;;;;42.73;17.70;;;2.30;54.30;;;;;;5053368;28;20484;-88
2021/12/23 10:41:32;;;;;;;29.30;15.10;;;2.30;54.20;;;;;;5050967;28;20460;-89
2021/12/23 10:44:02;;;;;;;30.77;16.83;;;2.20;54.30;;;;;;5038633;28;20479;-88
2021/12/23 10:46:31;;;;;;;36.13;18.40;;;2.30;54.50;;;;;;5056470;28;20809;-87
2021/12/23 10:49:14;;;;;;;32.40;15.63;;;2.30;54.60;;;;;;5090526;28;20485;-86
2021/12/23 10:51:59;;;;;;;32.57;18.00;;;2.20;54.50;;;;;;5078795;28;20694;-87
2021/12/23 11:00:18;;;;;;;26.10;14.90;;;2.30;54.70;;;;;;5066021;28;20454;-88
2021/12/23 11:03:07;;;;;;;37.77;17.20;;;2.20;54.40;;;;;;5075251;28;20474;-87
2021/12/23 11:05:38;;;;;;;26.10;14.77;;;2.50;54.60;;;;;;5074168;28;20537;-89
2021/12/23 11:08:18;;;;;;;38.80;15.70;;;2.70;54.40;;;;;;5074836;28;20478;-87
2021/12/23 11:11:24;;;;;;;51.30;22.80;;;2.90;53.90;;;;;;5059658;28;20443;-86
2021/12/23 11:28:28;;;;;;;38.80;19.20;;;3.30;53.10;;;;;;5082149;28;20880;-88
2021/12/23 11:39:44;;;;;;;33.20;17.10;;;3.60;53.50;;;;;;5043578;28;20450;-88
2021/12/23 11:42:20;;;;;;;58.03;24.47;;;3.70;53.20;;;;;;5056964;28;20848;-87
2021/12/23 11:44:48;;;;;;;31.47;16.73;;;3.40;53.30;;;;;;5076316;28;20546;-85
2021/12/23 11:47:15;;;;;;;47.87;21.80;;;3.40;53.60;;;;;;5093766;28;20458;-87
2021/12/23 11:49:45;;;;;;;42.23;18.43;;;3.30;54.10;;;;;;5042112;28;20447;-87
2021/12/23 11:52:14;;;;;;;28.40;17.87;;;3.40;54.00;;;;;;5058111;28;20486;-88
2021/12/23 11:54:44;;;;;;;32.67;17.70;;;3.60;54.00;;;;;;5089734;28;20940;-87
2021/12/23 11:57:16;;;;;;;34.47;17.17;;;3.70;54.00;;;;;;5065746;28;20455;-87
2021/12/23 11:59:58;;;;;;;35.97;19.37;;;3.70;53.40;;;;;;5068889;28;21112;-88
2021/12/23 12:02:25;;;;;;;37.47;19.00;;;3.80;53.50;;;;;;5073476;28;20494;-87
2021/12/23 12:05:00;;;;;;;49.17;21.73;;;3.70;53.70;;;;;;5074027;28;20466;-87
2021/12/23 12:07:28;;;;;;;41.90;21.10;;;3.50;54.20;;;;;;5078480;28;20466;-87
2021/12/23 12:09:57;;;;;;;40.27;19.97;;;3.60;54.40;;;;;;5077072;28;20459;-85
2021/12/23 12:12:27;;;;;;;39.03;19.13;;;3.70;54.30;;;;;;5080917;27;20517;-85
2021/12/23 12:14:55;;;;;;;45.57;21.50;;;3.80;54.30;;;;;;5092263;28;20958;-86
2021/12/23 12:17:39;;;;;;;31.17;17.83;;;3.90;54.30;;;;;;5075541;28;20460;-86
2021/12/23 12:20:25;;;;;;;42.90;20.40;;;3.90;54.00;;;;;;5096629;27;20450;-88
2021/12/23 12:23:00;;;;;;;39.00;19.30;;;4.00;54.00;;;;;;5076192;28;20482;-87
2021/12/23 12:25:49;;;;;;;39.57;18.33;;;4.10;54.00;;;;;;5085956;28;20507;-87
2021/12/23 12:28:21;;;;;;;28.90;17.00;;;4.10;53.80;;;;;;5090098;28;20458;-87
2021/12/23 12:30:52;;;;;;;39.17;16.87;;;4.10;53.60;;;;;;5101225;28;20865;-87
2021/12/23 12:33:54;;;;;;;39.03;18.10;;;4.10;53.90;;;;;;5084578;28;20483;-87
2021/12/23 12:36:22;;;;;;;27.63;16.83;;;4.10;54.00;;;;;;5098797;28;20984;-87
2021/12/23 12:38:52;;;;;;;42.80;19.17;;;4.00;53.90;;;;;;5093752;28;20933;-88
2021/12/23 12:41:27;;;;;;;32.27;16.23;;;3.90;54.10;;;;;;5093889;28;21510;-88
2021/12/23 12:44:05;;;;;;;37.00;19.33;;;3.90;54.20;;;;;;5064694;28;20866;-87
2021/12/23 12:47:04;;;;;;;44.83;21.57;;;4.10;54.20;;;;;;5075766;28;20446;-87
2021/12/23 12:49:36;;;;;;;34.03;19.93;;;4.00;54.10;;;;;;5095941;27;20481;-87
2021/12/23 12:52:19;;;;;;;32.40;17.47;;;4.10;54.20;;;;;;5078459;28;20977;-88
2021/12/23 12:55:02;;;;;;;35.83;18.50;;;4.00;54.10;;;;;;5095792;27;20455;-87
2021/12/23 12:57:34;;;;;;;38.63;19.30;;;4.00;54.20;;;;;;5075097;28;20547;-85
2021/12/23 13:00:19;;;;;;;41.53;18.30;;;4.10;54.90;;;;;;5095677;28;20454;-87
2021/12/23 13:02:52;;;;;;;37.67;18.57;;;4.20;54.20;;;;;;5084723;28;20973;-88
2021/12/23 13:05:27;;;;;;;37.83;19.23;;;4.20;54.10;;;;;;5094524;28;20452;-87
2021/12/23 13:08:20;;;;;;;33.33;18.80;;;4.10;54.10;;;;;;5062578;28;20456;-87
2021/12/23 13:10:59;;;;;;;35.20;19.20;;;4.20;54.30;;;;;;5077379;27;20450;-87
2021/12/23 13:14:12;;;;;;;41.13;21.13;;;4.10;54.00;;;;;;5092166;28;20475;-87
2021/12/23 13:17:00;;;;;;;34.43;16.80;;;4.20;54.10;;;;;;5090151;28;20484;-87
2021/12/23 13:19:30;;;;;;;44.00;20.13;;;4.30;54.00;;;;;;5074717;28;20486;-87
2021/12/23 13:21:59;;;;;;;36.13;17.80;;;4.30;54.10;;;;;;5053777;28;21038;-87
2021/12/23 13:24:28;;;;;;;39.23;18.43;;;4.40;54.10;;;;;;5075663;28;20447;-88
2021/12/23 13:26:57;;;;;;;30.60;16.37;;;4.40;54.10;;;;;;5093513;28;20453;-87
2021/12/23 13:29:27;;;;;;;31.57;18.00;;;4.50;54.10;;;;;;5074147;28;20478;-87
2021/12/23 13:31:57;;;;;;;44.03;19.13;;;4.40;54.20;;;;;;5093487;28;20474;-87
2021/12/23 13:34:28;;;;;;;40.90;19.63;;;4.50;54.10;;;;;;5061367;28;20437;-85
2021/12/23 13:36:57;;;;;;;49.07;22.10;;;4.60;54.00;;;;;;5060832;28;20824;-87
2021/12/23 13:39:26;;;;;;;51.97;20.27;;;4.60;53.90;;;;;;5056557;28;20954;-87
2021/12/23 13:41:55;;;;;;;46.23;23.90;;;4.60;53.70;;;;;;5076939;28;20452;-86
2021/12/23 13:44:25;;;;;;;42.53;21.57;;;4.70;53.70;;;;;;5073646;28;21207;-86
2021/12/23 13:47:04;;;;;;;37.60;17.60;;;4.70;53.70;;;;;;5075385;28;20451;-87